Rainelle, WV (25962)

1:35 PM EDT on July 02, 2015 (GMT -0400)
Wren Lane | | Change Station
CLOSE
Current Station
Personal Weather Station
Location: Rainelle, WV
Elevation: 2405 ft
Nearby Weather Stations

Elev 2405 ft 38.04 °N, 80.92 °W | Updated 12 minutes ago

Rain
Rain
66.9 °F
Feels Like 66.9 °F
N
0.0
Wind Variable Wind from WSW

Today
High -- | Low -- °F
--% Chance of Precip.
Yesterday
High -- | Low -- °F
Precip. -- in
6:04 AM 8:49 PM
Waxing Gibbous, 99% visible
Pressure 30.00 in
Visibility 10.0 miles
Clouds Scattered Clouds 1700 ft
Scattered Clouds 5000 ft
Scattered Clouds 8500 ft
Dew Point 66 °F
Humidity 98%
Rainfall 0.58 in
Snow Depth Not available.
UV 8 out of 12
Pollen .50 out of 12
Air Quality Not available.
Flu Activity Not available.
METAR KLWB 021535Z AUTO 26005KT 10SM SCT017 SCT050 SCT085 21/16 A3000 RMK AO2 T02120162

More Conditions Fewer Conditions

Pressure 30.00 in
Visibility 10.0 miles
Clouds Scattered Clouds 1700 ft
Scattered Clouds 5000 ft
Scattered Clouds 8500 ft
Dew Point 66 °F
Humidity 98%
Rainfall 0.58 in
Snow Depth Not available.
UV 8 out of 12
Pollen .50 out of 12
Air Quality Not available.
Flu Activity Not available.
METAR KLWB 021535Z AUTO 26005KT 10SM SCT017 SCT050 SCT085 21/16 A3000 RMK AO2 T02120162

More Conditions Fewer Conditions

10-Day Weather Forecast

×

Almanac

Astronomy

Jul. 02, 2015 Rise Set
Actual Time
Civil Twilight
Nautical Twilight
Astronomical Twilight
Moon
Length of Visible Light
Length of Day
Tomorrow will be .
, % of the Moon is Illuminated

Today's Extremes

State Highs State Lows

Community

WunderPhotos

Upload Photos

1,834,505 photos uploaded!

WunderBlogs® & News

Nearby

Air Quality

  Air Quality AQ Index Pollutant
Not available.

Snow Depth

Station Depth Elevation

Earthquake Activity

City Distance Mag. Time & Date
Minimum magnitude displayed is 2.5.

Coastal Water Temperatures

Place Temperature

Stations

Nearby Weather Stations

Station Location Temp. Windchill Dew Point Humidity Wind Precip. Elev Updated Type